Skip Navigation LinksHome page > Weather > Current weather Skip Navigation Links

Current Weather

Chicago O'Hare Intl, Chicago

For information only: do not use for flight planning or navigation.
Latest weather
Observation time Wednesday, July 23, 2014 2:51 PM CDT
Local time Wednesday, July 23, 2014 2:58 PM CDT
Flight conditions Visual Meteorological Conditions
Winds
Wind direction Northeast (40°)
Wind speed 22 mph
Wind gusting to 29 mph
Peak wind speed 32 mph, 2:06 PM
Peak wind direction North (10°)
Visibility 10 mi.
Sky condition
Ceiling unlimited
Cloud layer few clouds 3,200 ft.
Temperature 74°F
Dewpoint 45°F
Altimeter 30.15 in.Hg
Derived measurements
Relative humidity 36%
Density altitude 853 ft.
Sea-level pressure 30.14 in.Hg
Remarks
Automated weather observing station with precipitation discriminator.
METAR KORD 231951Z 04019G25KT 10SM FEW032 23/07 A3015 RMK AO2 PK WND 01028/1906 SLP205 T02330072

Settings

Location code

InnerDrive.Weather 4.0.5294.0 Release CLR 4.0.30319.34014
Copyright ©2014 Inner Drive Technology. All rights reserved. Portions Copyright ©1986-2014 David Braverman.

Find weather

Site navigation


Skip Navigation Links

Place info

Page info

PayPal - The safer, easier way to pay online!

Return home.

Copyright ©2014 Inner Drive Technology. Purveyors of fine, hand-crafted computer software. Page printed 2014-07-23T19:58:09 UTC.